Terminal Aerodrome Forecast
Issued by NWS

Home | Current Version | Previous Version | Text Only | Print | Product List | Glossary On
Versions: 1 2 3 4 5 6 7 8 9 10 11 12 13 14 15 16 17 18
000
FTUS46 KLOX 210600 AAA
TAFBUR
TAF AMD
KBUR 210631Z 2107/2206 17005KT P6SM OVC015
     FM211100 VRB03KT 6SM -DZ BR BKN010 OVC020
     FM211700 16004KT P6SM VCSH SCT010 BKN020 BKN050
     FM211900 18009KT P6SM VCSH SCT025 BKN050
     FM220400 15005KT P6SM VCSH BKN012 OVC025=

USA.gov is the U.S. government's official web portal to all federal, state and local government web resources and services.